createdAt,value
2022-12-13T00:05:02.262Z,89.62
2022-12-13T00:10:34.095Z,89.78
2022-12-13T00:16:05.759Z,89.79
2022-12-13T00:21:36.868Z,89.34
2022-12-13T00:27:08.204Z,89.65
2022-12-13T00:32:39.457Z,88.76
2022-12-13T00:38:11.015Z,88.35
2022-12-13T00:43:42.994Z,89.34
2022-12-13T00:49:14.373Z,88.81
2022-12-13T00:54:45.787Z,87.31
2022-12-13T01:00:17.233Z,88.78
2022-12-13T01:11:18.879Z,89.32
2022-12-13T01:16:50.955Z,89.01
2022-12-13T01:22:22.697Z,87.78
2022-12-13T01:27:54.420Z,86.98
2022-12-13T01:33:26.066Z,88.59
2022-12-13T01:38:59.089Z,89.02
2022-12-13T01:44:30.127Z,89.01
2022-12-13T01:50:02.122Z,89.29
2022-12-13T01:55:33.823Z,89.75
2022-12-13T02:01:05.608Z,89.96
2022-12-13T02:06:37.549Z,90.73
2022-12-13T02:12:09.833Z,91.03
2022-12-13T02:17:45.302Z,90.60
2022-12-13T02:28:43.915Z,90.91
2022-12-13T02:34:16.219Z,90.71
2022-12-13T02:39:48.170Z,90.52
2022-12-13T02:45:21.095Z,90.39
2022-12-13T02:50:57.726Z,90.37
2022-12-13T02:56:29.644Z,90.39
2022-12-13T03:02:10.184Z,90.97
2022-12-13T03:07:33.291Z,91.51
2022-12-13T03:13:05.175Z,91.51
2022-12-13T03:18:36.818Z,91.02
2022-12-13T03:24:08.463Z,90.37
2022-12-13T03:29:40.179Z,90.46
2022-12-13T03:35:22.289Z,90.55
2022-12-13T03:40:43.936Z,90.76
2022-12-13T03:46:15.665Z,90.96
2022-12-13T03:51:47.309Z,91.09
2022-12-13T03:57:19.296Z,91.35
2022-12-13T04:02:57.001Z,91.39
2022-12-13T04:14:00.307Z,91.01
2022-12-13T04:19:32.099Z,91.00
2022-12-13T04:25:03.983Z,90.85
2022-12-13T04:30:35.728Z,90.64
2022-12-13T04:36:07.447Z,90.29
2022-12-13T04:41:39.332Z,90.45
2022-12-13T04:47:11.140Z,90.52
2022-12-13T04:52:42.818Z,90.57
2022-12-13T04:58:18.393Z,90.95
2022-12-13T05:03:46.428Z,89.69
2022-12-13T05:09:18.258Z,90.06
2022-12-13T05:20:19.798Z,87.59
2022-12-13T05:25:52.062Z,88.01
2022-12-13T05:31:24.505Z,88.92
2022-12-13T05:36:56.587Z,89.46
2022-12-13T05:42:28.407Z,90.38
2022-12-13T05:48:00.580Z,90.32
2022-12-13T05:53:32.545Z,90.37
2022-12-13T05:59:04.651Z,88.39
2022-12-13T06:04:36.352Z,88.64
2022-12-13T06:10:10.069Z,88.02
2022-12-13T06:15:44.649Z,87.68
2022-12-13T06:21:12.201Z,89.43
2022-12-13T06:26:45.124Z,89.99
2022-12-13T06:32:16.494Z,90.73
2022-12-13T06:37:48.441Z,90.47
2022-12-13T06:43:19.930Z,89.99
2022-12-13T06:48:51.766Z,88.95
2022-12-13T06:54:23.657Z,89.53
2022-12-13T06:59:55.684Z,89.89
2022-12-13T07:05:27.555Z,87.91
2022-12-13T07:10:59.743Z,88.01
2022-12-13T07:16:32.089Z,88.63
2022-12-13T07:22:04.071Z,90.35
2022-12-13T07:27:36.333Z,89.48
2022-12-13T07:33:08.611Z,87.34
2022-12-13T07:38:40.978Z,88.31
2022-12-13T07:44:13.023Z,90.73
2022-12-13T07:49:45.166Z,90.04
2022-12-13T07:55:17.274Z,88.49
2022-12-13T08:00:49.404Z,90.15
2022-12-13T08:06:21.296Z,90.17
2022-12-13T08:11:53.237Z,90.15
2022-12-13T08:17:28.423Z,90.30
2022-12-13T08:23:02.995Z,90.80
2022-12-13T08:27:49.347Z,89.54
2022-12-13T08:33:22.093Z,91.11
2022-12-13T08:38:53.815Z,90.04
2022-12-13T08:44:25.918Z,88.31
2022-12-13T08:50:03.058Z,88.45
2022-12-13T08:55:32.373Z,87.57
2022-12-13T09:01:01.505Z,87.01
2022-12-13T09:12:03.352Z,85.86
2022-12-13T09:17:37.000Z,85.39
2022-12-13T09:23:08.074Z,85.44
2022-12-13T09:28:40.381Z,86.29
2022-12-13T09:34:12.377Z,87.43
2022-12-13T09:39:44.147Z,84.98
2022-12-13T09:45:22.463Z,86.58
2022-12-13T09:50:58.269Z,83.27
2022-12-13T09:56:19.701Z,84.37
2022-12-13T10:01:51.928Z,86.30
2022-12-13T10:07:23.515Z,87.30
2022-12-13T10:12:55.275Z,87.31
2022-12-13T10:18:27.416Z,87.43
2022-12-13T10:24:24.113Z,87.41
2022-12-13T10:29:31.251Z,87.32
2022-12-13T10:35:02.839Z,87.32
2022-12-13T10:48:24.639Z,84.01
2022-12-13T10:53:56.603Z,84.45
2022-12-13T10:59:27.718Z,82.77
2022-12-13T11:04:59.676Z,83.59
2022-12-13T11:10:31.330Z,83.69
2022-12-13T11:16:03.185Z,84.26
2022-12-13T11:21:35.031Z,82.43
2022-12-13T11:27:06.803Z,84.49
2022-12-13T11:32:38.169Z,84.79
2022-12-13T11:38:10.071Z,84.74
2022-12-13T11:46:03.109Z,85.31
2022-12-13T11:51:34.692Z,84.24
2022-12-13T11:57:06.345Z,84.95
2022-12-13T12:02:38.393Z,83.26
2022-12-13T12:19:11.780Z,84.40
2022-12-13T12:24:43.102Z,83.88
2022-12-13T12:30:23.713Z,84.23
2022-12-13T12:35:46.807Z,83.37
2022-12-13T12:41:18.159Z,83.72
2022-12-13T12:47:18.956Z,84.06
2022-12-13T12:52:22.085Z,83.59
2022-12-13T12:57:53.929Z,83.48
2022-12-13T13:03:26.258Z,83.33
2022-12-13T13:14:27.051Z,80.74
2022-12-13T13:20:09.592Z,81.94
2022-12-13T13:25:31.016Z,82.82
2022-12-13T13:36:32.352Z,80.27
2022-12-13T13:42:04.342Z,79.43
2022-12-13T13:47:36.073Z,79.64
2022-12-13T13:53:07.743Z,80.47
2022-12-13T13:58:39.284Z,81.06
2022-12-13T14:04:11.129Z,82.58
2022-12-13T14:09:43.032Z,82.82
2022-12-13T14:15:14.704Z,80.95
2022-12-13T14:20:48.006Z,81.75
2022-12-13T14:26:19.652Z,80.36
2022-12-13T14:31:51.451Z,80.00
2022-12-13T14:37:23.189Z,78.18
2022-12-13T14:42:54.749Z,80.39
2022-12-13T14:48:28.593Z,81.16
2022-12-13T14:53:58.007Z,81.93
2022-12-13T14:59:29.893Z,82.15
2022-12-13T15:05:01.603Z,81.27
2022-12-13T15:10:33.406Z,82.22
2022-12-13T15:16:10.347Z,82.92
2022-12-13T15:21:37.102Z,83.35
2022-12-13T15:27:09.583Z,84.10
2022-12-13T15:32:41.341Z,83.89
2022-12-13T15:38:13.149Z,81.90
2022-12-13T15:43:45.239Z,84.82
2022-12-13T15:54:46.620Z,85.16
2022-12-13T16:00:18.604Z,85.34
2022-12-13T16:05:50.712Z,85.47
2022-12-13T16:11:22.393Z,84.75
2022-12-13T16:16:55.309Z,86.36
2022-12-13T16:22:28.158Z,87.42
2022-12-13T16:28:00.254Z,87.86
2022-12-13T16:33:32.791Z,86.04
2022-12-13T16:39:03.806Z,84.50
2022-12-13T16:44:36.030Z,85.77
2022-12-13T16:50:07.429Z,87.13
2022-12-13T16:55:39.597Z,86.87
2022-12-13T17:01:11.345Z,86.28
2022-12-13T17:06:43.185Z,85.95
2022-12-13T17:12:15.221Z,85.81
2022-12-13T17:17:47.278Z,86.39
2022-12-13T17:23:19.179Z,86.19
2022-12-13T17:28:51.249Z,86.14
2022-12-13T17:34:23.070Z,85.94
2022-12-13T17:39:54.846Z,86.19
2022-12-13T17:45:26.433Z,85.44
2022-12-13T17:50:58.519Z,87.35
2022-12-13T17:56:30.330Z,87.01
2022-12-13T18:02:02.175Z,89.63
2022-12-13T18:07:33.910Z,89.64
2022-12-13T18:13:05.483Z,90.12
2022-12-13T18:18:37.597Z,88.61
2022-12-13T18:24:10.083Z,87.80
2022-12-13T18:29:48.003Z,88.30
2022-12-13T18:35:19.938Z,89.07
2022-12-13T18:40:52.115Z,88.08
2022-12-13T18:46:23.913Z,86.43
2022-12-13T18:51:55.821Z,87.78
2022-12-13T18:57:27.280Z,87.61
2022-12-13T19:02:59.337Z,88.44
2022-12-13T19:08:31.207Z,87.72
2022-12-13T19:14:03.368Z,87.78
2022-12-13T19:19:35.660Z,87.38
2022-12-13T19:25:07.394Z,86.84
2022-12-13T19:30:39.275Z,87.92
2022-12-13T19:36:10.696Z,87.37
2022-12-13T19:41:42.402Z,87.16
2022-12-13T19:47:13.691Z,86.26
2022-12-13T19:52:45.475Z,86.72
2022-12-13T19:58:17.397Z,85.98
2022-12-13T20:03:49.292Z,87.11
2022-12-13T20:09:21.296Z,86.85
2022-12-13T20:14:53.040Z,88.74
2022-12-13T20:20:31.488Z,89.53
2022-12-13T20:25:56.561Z,89.18
2022-12-13T20:31:28.522Z,88.81
2022-12-13T20:39:21.532Z,86.73
2022-12-13T20:44:53.378Z,87.07
2022-12-13T20:50:25.475Z,85.54
2022-12-13T20:55:56.791Z,85.58
2022-12-13T21:01:28.608Z,85.80
2022-12-13T21:07:00.495Z,85.98
2022-12-13T21:12:31.934Z,85.76
2022-12-13T21:18:03.774Z,87.36
2022-12-13T21:23:35.800Z,86.37
2022-12-13T21:29:07.238Z,86.43
2022-12-13T21:34:39.210Z,86.38
2022-12-13T21:40:11.395Z,86.59
2022-12-13T21:45:43.541Z,87.03
2022-12-13T21:51:15.245Z,87.07
2022-12-13T21:56:46.866Z,87.92
2022-12-13T22:02:19.827Z,88.43
2022-12-13T22:07:51.520Z,88.92
2022-12-13T22:13:23.195Z,88.90
2022-12-13T22:18:55.169Z,88.89
2022-12-13T22:24:26.663Z,89.16
2022-12-13T22:29:58.630Z,88.92
2022-12-13T22:46:29.297Z,86.19
2022-12-13T22:52:00.960Z,86.54
2022-12-13T22:57:33.172Z,88.05
2022-12-13T23:03:05.309Z,85.83
2022-12-13T23:14:06.274Z,87.24
2022-12-13T23:19:50.902Z,86.43
2022-12-13T23:25:10.222Z,87.24
2022-12-13T23:30:42.291Z,86.22
2022-12-13T23:36:14.399Z,84.72
2022-12-13T23:41:45.931Z,85.67
2022-12-13T23:52:47.297Z,84.71
2022-12-13T23:58:18.951Z,85.28
